Time;durP1;ratioP1;P1;durP2;ratioP2;P2;SDS_P1;SDS_P2;PMS_P1;PMS_P2;Temp;Humidity;BMP_temperature;BMP_pressure;BME280_temperature;BME280_humidity;BME280_pressure;Samples;Min_cycle;Max_cycle;Signal;HPM_P1;HPM_P2
2022/11/19 00:04:07;;;;;;;1999.90;999.90;;;8.30;99.90;;;;;;6732389;88;20316;-76
2022/11/19 00:14:11;;;;;;;1999.90;999.90;;;8.40;99.90;;;;;;6731462;88;20630;-76
2022/11/19 00:34:15;;;;;;;1999.90;999.90;;;8.50;99.90;;;;;;6740886;88;20626;-79
2022/11/19 00:44:15;;;;;;;1999.90;999.90;;;8.40;99.90;;;;;;6735211;88;20322;-78
2022/11/19 00:54:16;;;;;;;1999.90;999.90;;;8.40;99.90;;;;;;6735395;88;20175;-77
2022/11/19 01:04:16;;;;;;;1999.90;999.90;;;8.50;99.90;;;;;;6731499;88;20221;-77
2022/11/19 01:14:17;;;;;;;1999.90;999.90;;;8.40;99.90;;;;;;6735081;88;20493;-78
2022/11/19 01:24:17;;;;;;;1999.90;999.90;;;8.50;99.90;;;;;;6740422;88;20293;-77
2022/11/19 01:34:18;;;;;;;1999.90;999.90;;;8.50;99.90;;;;;;6734265;88;20192;-77
2022/11/19 01:45:07;;;;;;;1999.90;999.90;;;8.50;99.90;;;;;;6735055;88;20237;-78
2022/11/19 01:55:08;;;;;;;1999.90;999.90;;;8.60;99.90;;;;;;6714478;88;20695;-79
2022/11/19 02:05:09;;;;;;;1999.90;999.90;;;8.50;99.90;;;;;;6724375;88;20204;-77
2022/11/19 02:15:24;;;;;;;1999.90;999.90;;;8.50;99.90;;;;;;6715036;88;20654;-79
2022/11/19 02:25:55;;;;;;;1999.90;999.90;;;8.50;99.90;;;;;;6716413;88;20302;-79
2022/11/19 02:36:04;;;;;;;1999.90;999.90;;;8.70;99.90;;;;;;6717102;88;20252;-77
2022/11/19 02:46:10;;;;;;;1999.90;999.90;;;8.70;99.90;;;;;;6712880;88;20207;-80
2022/11/19 02:56:13;;;;;;;1999.90;999.90;;;8.70;99.90;;;;;;6716253;88;20195;-77
2022/11/19 03:06:25;;;;;;;1999.90;999.90;;;8.60;99.90;;;;;;6715486;88;20286;-79
2022/11/19 03:16:41;;;;;;;1999.90;999.90;;;8.40;99.90;;;;;;6715653;88;20653;-79
2022/11/19 03:26:49;;;;;;;1999.90;999.90;;;8.40;99.90;;;;;;6715739;88;20568;-79
2022/11/19 03:36:53;;;;;;;1999.90;999.90;;;8.40;99.90;;;;;;6715933;88;20323;-78
2022/11/19 03:47:00;;;;;;;1999.90;999.90;;;8.40;99.90;;;;;;6718426;88;20189;-79
2022/11/19 03:57:02;;;;;;;1999.90;999.90;;;8.40;99.90;;;;;;6718074;88;20314;-77
2022/11/19 04:07:15;;;;;;;1999.90;999.90;;;8.30;99.90;;;;;;6719082;88;20189;-78
2022/11/19 04:17:17;;;;;;;1999.90;999.90;;;7.80;99.90;;;;;;6720526;88;20682;-78
2022/11/19 04:27:17;;;;;;;1999.90;999.90;;;7.30;99.90;;;;;;6719587;88;20339;-78
2022/11/19 04:37:18;;;;;;;1999.90;999.90;;;7.00;99.90;;;;;;6735680;88;20207;-77
2022/11/19 04:47:18;;;;;;;1999.90;999.90;;;6.90;99.90;;;;;;6736656;88;20196;-79
2022/11/19 04:57:19;;;;;;;1999.90;999.90;;;6.60;99.90;;;;;;6738483;88;20211;-78
2022/11/19 05:07:19;;;;;;;1999.90;999.90;;;6.40;99.90;;;;;;6736927;88;20620;-78
2022/11/19 05:17:20;;;;;;;1999.90;999.90;;;6.20;99.90;;;;;;6739087;88;20228;-78
2022/11/19 05:27:21;;;;;;;1999.90;999.90;;;5.80;99.90;;;;;;6740058;88;20217;-77
2022/11/19 05:37:21;;;;;;;1999.90;999.90;;;5.50;99.90;;;;;;6739152;88;20706;-78
2022/11/19 05:47:22;;;;;;;1999.90;999.90;;;5.50;99.90;;;;;;6739163;88;20196;-76
2022/11/19 05:57:23;;;;;;;1999.90;999.90;;;5.60;99.90;;;;;;6734368;88;20219;-77
2022/11/19 06:07:23;;;;;;;1999.90;999.90;;;5.50;99.90;;;;;;6738980;88;20526;-79
2022/11/19 06:17:24;;;;;;;1999.90;999.90;;;5.40;99.90;;;;;;6748725;88;20301;-79
2022/11/19 06:27:24;;;;;;;1999.90;999.90;;;5.40;99.90;;;;;;6748258;76;20195;-76
2022/11/19 06:37:25;;;;;;;1999.90;999.90;;;5.20;99.90;;;;;;6741840;88;20204;-78
2022/11/19 06:47:25;;;;;;;1999.90;999.90;;;5.20;99.90;;;;;;6754144;88;20703;-77
2022/11/19 06:57:26;;;;;;;1999.90;999.90;;;5.30;99.90;;;;;;6750230;88;20201;-76
2022/11/19 07:07:26;;;;;;;1999.90;999.90;;;5.20;99.90;;;;;;6743650;88;20211;-77
2022/11/19 07:17:27;;;;;;;1999.90;999.90;;;5.10;99.90;;;;;;6744573;88;20194;-78
2022/11/19 07:27:27;;;;;;;1999.90;999.90;;;4.90;99.90;;;;;;6744206;88;20225;-77
2022/11/19 07:37:28;;;;;;;1999.90;999.90;;;4.70;99.90;;;;;;6749056;88;22063;-77
2022/11/19 07:47:28;;;;;;;1999.90;999.90;;;4.40;99.90;;;;;;6745625;88;20192;-78
2022/11/19 07:57:29;;;;;;;1999.90;999.90;;;4.50;99.90;;;;;;6755505;88;20176;-78
2022/11/19 08:07:29;;;;;;;1999.90;999.90;;;4.40;99.90;;;;;;6753497;87;20225;-78
2022/11/19 08:27:49;;;;;;;1999.90;999.90;;;4.40;99.90;;;;;;6745596;88;22429;-79
2022/11/19 08:37:50;;;;;;;1999.90;999.90;;;4.40;99.90;;;;;;6748977;88;20192;-77
2022/11/19 08:47:50;;;;;;;1999.90;999.90;;;4.60;99.90;;;;;;6753769;87;20217;-79
2022/11/19 08:57:51;;;;;;;1999.90;999.90;;;4.50;99.90;;;;;;6753160;88;20341;-78
2022/11/19 09:07:53;;;;;;;1999.90;999.90;;;4.70;99.90;;;;;;6753710;88;20716;-78
2022/11/19 09:17:54;;;;;;;1999.90;999.90;;;4.60;99.90;;;;;;6752300;88;20216;-78
2022/11/19 09:27:54;;;;;;;1999.90;999.90;;;4.50;99.90;;;;;;6747152;88;20229;-78
2022/11/19 09:37:55;;;;;;;1999.90;999.90;;;4.50;99.90;;;;;;6748560;88;20227;-79
2022/11/19 09:48:16;;;;;;;1999.90;999.90;;;4.70;99.90;;;;;;6746561;88;20319;-77
2022/11/19 09:58:44;;;;;;;1999.90;999.90;;;4.60;99.90;;;;;;6749450;88;20165;-79
2022/11/19 10:09:13;;;;;;;1999.90;999.90;;;4.60;99.90;;;;;;6761599;88;20228;-78
2022/11/19 10:19:31;;;;;;;1999.90;999.90;;;4.70;99.90;;;;;;6742996;88;20276;-77
2022/11/19 10:29:36;;;;;;;1999.90;999.90;;;4.70;99.90;;;;;;6746592;88;20270;-77
2022/11/19 10:39:42;;;;;;;1999.90;999.90;;;4.80;99.90;;;;;;6746692;87;20282;-80
2022/11/19 10:49:44;;;;;;;1999.90;999.90;;;4.90;99.90;;;;;;6744356;88;20202;-78
2022/11/19 10:59:47;;;;;;;1999.90;999.90;;;4.90;99.90;;;;;;6763265;88;20316;-79
2022/11/19 11:09:47;;;;;;;1999.90;999.90;;;5.00;99.90;;;;;;6759238;88;20200;-79
2022/11/19 11:20:25;;;;;;;1999.90;999.90;;;4.80;99.90;;;;;;6761006;88;20752;-80
2022/11/19 11:30:26;;;;;;;1999.90;999.90;;;4.80;99.90;;;;;;6725404;88;20237;-79
2022/11/19 11:40:27;;;;;;;1999.90;999.90;;;4.90;99.90;;;;;;6740220;88;20225;-82
2022/11/19 11:50:30;;;;;;;1999.90;999.90;;;5.00;99.90;;;;;;6745721;88;20734;-79
2022/11/19 12:00:39;;;;;;;1999.90;999.90;;;4.90;99.90;;;;;;6744743;88;20307;-81
2022/11/19 12:11:04;;;;;;;1999.90;999.90;;;5.00;99.90;;;;;;6747134;88;20667;-79
2022/11/19 12:21:10;;;;;;;1999.90;999.90;;;5.10;99.90;;;;;;6751203;88;20300;-80
2022/11/19 12:32:02;;;;;;;1999.90;999.90;;;5.00;99.90;;;;;;6747232;77;20299;-75
2022/11/19 12:42:34;;;;;;;1999.90;999.90;;;5.20;99.90;;;;;;6736596;87;20292;-75
2022/11/19 12:52:49;;;;;;;1999.90;999.90;;;5.30;99.90;;;;;;6750692;88;20603;-74
2022/11/19 13:03:20;;;;;;;1999.90;999.90;;;5.40;99.90;;;;;;6746442;88;20314;-75
2022/11/19 13:13:25;;;;;;;1999.90;999.90;;;5.40;99.90;;;;;;6743137;88;20380;-76
2022/11/19 13:23:32;;;;;;;1999.90;999.90;;;5.40;99.90;;;;;;6742601;88;20248;-75
2022/11/19 13:33:42;;;;;;;1999.90;999.90;;;5.40;99.90;;;;;;6738031;88;20704;-77
2022/11/19 13:54:04;;;;;;;1999.90;999.90;;;5.40;99.90;;;;;;6744993;87;20196;-77
2022/11/19 14:04:45;;;;;;;1999.90;999.90;;;5.10;99.90;;;;;;6741676;87;20192;-77
2022/11/19 14:36:18;;;;;;;1999.90;999.90;;;4.90;99.90;;;;;;6743113;87;20266;-75
2022/11/19 14:46:24;;;;;;;1999.90;999.90;;;5.00;99.90;;;;;;6754715;88;20242;-75
2022/11/19 14:56:26;;;;;;;1999.90;999.90;;;5.00;99.90;;;;;;6735565;88;20294;-75
2022/11/19 15:06:27;;;;;;;1999.90;999.90;;;4.80;99.90;;;;;;6737489;88;20201;-75
2022/11/19 15:16:28;;;;;;;1999.90;999.90;;;4.80;99.90;;;;;;6736539;88;20795;-76
2022/11/19 15:26:51;;;;;;;1999.90;999.90;;;4.80;99.90;;;;;;6740918;87;20325;-76
2022/11/19 15:36:58;;;;;;;1999.90;999.90;;;4.80;99.90;;;;;;6745528;88;20329;-76
2022/11/19 15:47:03;;;;;;;1999.90;999.90;;;4.80;99.90;;;;;;6743949;87;20636;-76
2022/11/19 15:57:13;;;;;;;1999.90;999.90;;;4.80;99.90;;;;;;6756185;87;20190;-76
2022/11/19 16:07:13;;;;;;;1999.90;999.90;;;4.60;99.90;;;;;;6743259;88;20245;-75
2022/11/19 16:17:31;;;;;;;1999.90;999.90;;;4.50;99.90;;;;;;6741824;87;20274;-75
2022/11/19 16:27:31;;;;;;;1999.90;999.90;;;4.50;99.90;;;;;;6736555;87;20200;-76
2022/11/19 16:37:32;;;;;;;1999.90;999.90;;;4.40;99.90;;;;;;6743297;87;20234;-76
2022/11/19 16:47:38;;;;;;;1999.90;999.90;;;4.50;99.90;;;;;;6739981;88;20234;-77
2022/11/19 16:57:45;;;;;;;1999.90;999.90;;;4.50;99.90;;;;;;6746457;88;20644;-77
2022/11/19 17:07:51;;;;;;;1999.90;999.90;;;4.40;99.90;;;;;;6755219;88;20220;-75
2022/11/19 17:17:52;;;;;;;1999.90;999.90;;;4.50;99.90;;;;;;6747240;87;20644;-76
2022/11/19 17:27:58;;;;;;;1999.90;999.90;;;4.40;99.90;;;;;;6744682;87;20230;-75
2022/11/19 17:38:09;;;;;;;1999.90;999.90;;;4.30;99.90;;;;;;6737148;88;20576;-75
2022/11/19 17:48:21;;;;;;;1999.90;999.90;;;4.40;99.90;;;;;;6740884;87;20201;-75
2022/11/19 17:58:21;;;;;;;1999.90;999.90;;;4.40;99.90;;;;;;6743919;88;20192;-75
2022/11/19 18:08:22;;;;;;;1999.90;999.90;;;4.40;99.90;;;;;;6743914;87;20233;-75
2022/11/19 18:18:22;;;;;;;1999.90;999.90;;;4.40;99.90;;;;;;6739479;88;20176;-74
2022/11/19 18:28:23;;;;;;;1999.90;999.90;;;4.40;99.90;;;;;;6744168;77;20297;-75
2022/11/19 18:38:24;;;;;;;1999.90;999.90;;;4.40;99.90;;;;;;6729508;88;20304;-76
2022/11/19 18:48:24;;;;;;;1999.90;999.90;;;4.40;99.90;;;;;;6729420;88;20254;-77
2022/11/19 18:58:24;;;;;;;1999.90;999.90;;;4.30;99.90;;;;;;6727290;88;20191;-76
2022/11/19 19:08:25;;;;;;;1999.90;999.90;;;4.20;99.90;;;;;;6727616;88;20296;-77
2022/11/19 19:18:25;;;;;;;1999.90;999.90;;;4.20;99.90;;;;;;6730340;88;20201;-77
2022/11/19 19:28:26;;;;;;;1999.90;999.90;;;4.00;99.90;;;;;;6727355;88;20700;-77
2022/11/19 19:38:26;;;;;;;1999.90;999.90;;;4.10;99.90;;;;;;6732431;88;20721;-78
2022/11/19 19:48:27;;;;;;;1999.90;999.90;;;3.90;99.90;;;;;;6733561;88;20206;-77
2022/11/19 19:58:27;;;;;;;1999.90;999.90;;;3.90;99.90;;;;;;6731743;88;20182;-80
2022/11/19 20:08:28;;;;;;;1999.90;999.90;;;3.90;99.90;;;;;;6734065;88;20186;-78
2022/11/19 20:18:30;;;;;;;1999.90;999.90;;;3.90;99.90;;;;;;6736016;88;20193;-79
2022/11/19 20:28:32;;;;;;;1999.90;999.90;;;4.00;99.90;;;;;;6738093;88;20761;-79
2022/11/19 20:38:35;;;;;;;1999.90;999.90;;;4.00;99.90;;;;;;6728457;88;20202;-78
2022/11/19 20:48:37;;;;;;;1999.90;999.90;;;3.90;99.90;;;;;;6721237;88;20173;-78
2022/11/19 20:58:37;;;;;;;1999.90;999.90;;;3.70;99.90;;;;;;6730155;88;20205;-77
2022/11/19 21:08:38;;;;;;;1999.90;999.90;;;3.60;99.90;;;;;;6728443;88;20185;-77
2022/11/19 21:18:38;;;;;;;1999.90;999.90;;;3.60;99.90;;;;;;6734691;88;20657;-77
2022/11/19 21:28:39;;;;;;;1999.90;999.90;;;3.70;99.90;;;;;;6741736;88;20223;-78
2022/11/19 21:38:39;;;;;;;1999.90;999.90;;;3.60;99.90;;;;;;6731413;88;20205;-79
2022/11/19 21:48:40;;;;;;;1999.90;999.90;;;3.60;99.90;;;;;;6736061;88;20189;-79
2022/11/19 21:58:40;;;;;;;1999.90;999.90;;;3.70;99.90;;;;;;6727426;88;21432;-78
2022/11/19 22:08:42;;;;;;;1999.90;999.90;;;3.60;99.90;;;;;;6731595;88;20285;-77
2022/11/19 22:18:42;;;;;;;1999.90;999.90;;;3.70;99.90;;;;;;6746235;88;20181;-78
2022/11/19 22:28:43;;;;;;;1999.90;999.90;;;3.80;99.90;;;;;;6744793;88;20694;-78
2022/11/19 22:38:44;;;;;;;1999.90;999.90;;;3.50;99.90;;;;;;6738923;88;20209;-79
2022/11/19 22:48:44;;;;;;;1999.90;999.90;;;3.40;99.90;;;;;;6745532;88;21278;-81
2022/11/19 22:58:46;;;;;;;1999.90;999.90;;;3.30;99.90;;;;;;6749313;88;20760;-80
2022/11/19 23:08:47;;;;;;;1999.90;999.90;;;3.20;99.90;;;;;;6734235;88;20258;-79
2022/11/19 23:18:52;;;;;;;1999.90;999.90;;;3.30;99.90;;;;;;6739205;88;20188;-80
2022/11/19 23:28:53;;;;;;;1999.90;999.90;;;3.20;99.90;;;;;;6720461;88;20264;-79
2022/11/19 23:38:54;;;;;;;1999.90;999.90;;;3.10;99.90;;;;;;6725801;88;20209;-79
2022/11/19 23:48:56;;;;;;;1999.90;999.90;;;3.20;99.90;;;;;;6725205;88;20243;-79
2022/11/19 23:58:58;;;;;;;1999.90;999.90;;;3.30;99.90;;;;;;6720499;88;20276;-79
